Capewater — PBPQ — position and weather

sailwx.info

Track history (hours):
 
Tides and Currents Weather Stations Pressure Air Temp Water Temp Dewpoint Dewpoint Depression Visibility Wind Speed Wind Dir Waves Ship Positions

Capewater

Last reported at 2016-Feb-13 17:10 UTC. Time now 2016-Feb-14 01:49 UTC.
Position N 54°26' E 005°25'.

Length 100 m; draft 6.5 m.

Type: Tanker. MMSI: 246346000.

Date/timePositionNaut miles runAvg speedWind from/ knotsBaromVisibWave heightAir tempDewpointWater temp
2016-Feb-13 17:10N 54°26' E 005°25'711.1
2016-Feb-13 16:33N 54°20' E 005°20'1111.0
2016-Feb-13 15:33N 54°10' E 005°11'1111.0
2016-Feb-13 14:33N 53°59' E 005°05'1111.0
2016-Feb-13 13:33N 53°49' E 004°58'4011.9
2016-Feb-13 10:14N 53°13' E 004°33'913.0
2016-Feb-13 09:33N 53°05' E 004°26'1313.1
2016-Feb-13 08:33N 52°53' E 004°16'1313.4
2016-Feb-13 07:33N 52°42' E 004°04'1413.8
2016-Feb-13 06:33N 52°30' E 003°55'1414.4
2016-Feb-13 05:34N 52°15' E 003°53'1313.3
2016-Feb-13 04:34N 52°02' E 003°55'1312.8
2016-Feb-13 03:33N 51°56' E 004°13'3 3.2
2016-Feb-13 02:31N 51°53' E 004°17'0 0.0
2016-Feb-13 01:31N 51°53' E 004°17'0 0.0
2016-Feb-13 00:31N 51°53' E 004°17'0 0.0
2016-Feb-12 23:31N 51°53' E 004°17'0 0.0
2016-Feb-12 22:25N 51°53' E 004°17'0 0.0
2016-Feb-12 21:31N 51°53' E 004°17'0 0.0
2016-Feb-12 20:31N 51°53' E 004°17'0 0.0
2016-Feb-12 19:31N 51°53' E 004°17'0 0.0
2016-Feb-12 18:28N 51°53' E 004°17'0 0.0
2016-Feb-12 17:31N 51°53' E 004°17'0 0.0
2016-Feb-12 16:31N 51°53' E 004°17'0 0.0
2016-Feb-12 15:31N 51°53' E 004°17'0 0.0
2016-Feb-12 14:31N 51°53' E 004°17'0 0.0
2016-Feb-12 13:31N 51°53' E 004°17'0 0.0
2016-Feb-12 12:28N 51°53' E 004°17'0 0.0
2016-Feb-12 11:28N 51°53' E 004°17'0 0.0
2016-Feb-12 10:31N 51°53' E 004°17'0 0.0
2016-Feb-12 09:31N 51°53' E 004°17'0 0.0
2016-Feb-12 08:31N 51°53' E 004°17'0 0.0
2016-Feb-12 07:25N 51°53' E 004°17'0 0.0
2016-Feb-12 06:25N 51°53' E 004°17'0 0.0
2016-Feb-12 05:16N 51°53' E 004°17'0 0.0
2016-Feb-12 04:25N 51°53' E 004°17'0 0.0
2016-Feb-12 03:31N 51°53' E 004°17'0 0.0
2016-Feb-12 02:31N 51°53' E 004°17'0 0.0
2016-Feb-12 01:31N 51°53' E 004°17'0 0.0
2016-Feb-12 00:31N 51°53' E 004°17'0 0.0
2016-Feb-11 23:31N 51°53' E 004°17'0 0.0
2016-Feb-11 22:31N 51°53' E 004°17'0 0.0
2016-Feb-11 21:34N 51°53' E 004°17'5 5.1
2016-Feb-11 20:33N 51°57' E 004°11'1111.4
2016-Feb-11 19:33N 52°01' E 003°54'8 8.2
2016-Feb-11 18:34N 52°03' E 003°41'2510.5
2016-Feb-11 16:10N 52°17' E 003°07'813.1
2016-Feb-11 15:33N 52°23' E 002°58'1313.3
2016-Feb-11 14:33N 52°31' E 002°40'2913.5
2016-Feb-11 12:23N 52°52' E 002°07'1214.2
2016-Feb-11 11:33N 52°58' E 001°50'1515.3
2016-Feb-11 10:34N 53°06' E 001°29'1915.1
2016-Feb-11 09:18N 53°21' E 001°09'3215.2
2016-Feb-11 07:12N 53°48' E 000°41'1015.4
2016-Feb-11 06:33N 53°56' E 000°32'1515.3
2016-Feb-11 05:33N 54°10' E 000°19'1515.1
2016-Feb-11 04:34N 54°23' E 000°05'1514.8
2016-Feb-11 03:33N 54°34' W 000°11'1414.3
2016-Feb-11 02:34N 54°43' W 000°30'1211.9
2016-Feb-11 01:32N 54°41' W 000°50'1211.8
2016-Feb-11 00:33N 54°38' W 001°09'2 0.1
2016-Feb-10 07:31N 54°36' W 001°11'5 4.9
2016-Feb-10 06:33N 54°40' W 001°07'4 4.3
2016-Feb-10 05:33N 54°42' W 001°00'0 0.0
2016-Feb-10 04:30N 54°42' W 001°00'0 0.0
2016-Feb-10 03:33N 54°42' W 001°00'0 0.0
2016-Feb-10 02:33N 54°42' W 001°00'0 0.0
2016-Feb-10 01:30N 54°42' W 001°00'0 0.0
2016-Feb-10 00:33N 54°43' W 001°00'0 0.1
2016-Feb-09 23:33N 54°43' W 001°01'0 0.0
2016-Feb-09 22:33N 54°43' W 001°01'0 0.0
2016-Feb-09 21:30N 54°43' W 001°01'0 0.1
2016-Feb-09 20:33N 54°43' W 001°00'1010.2
2016-Feb-09 19:32N 54°38' W 000°45'1111.5
2016-Feb-09 18:33N 54°33' W 000°27'1211.7
2016-Feb-09 17:34N 54°24' W 000°15'1111.1
2016-Feb-09 16:34N 54°15' W 000°04'1010.4
2016-Feb-09 15:33N 54°06' E 000°05'1111.3
2016-Feb-09 14:33N 53°55' E 000°13'1211.7
2016-Feb-09 13:33N 53°44' E 000°20'1111.1
2016-Feb-09 12:33N 53°33' E 000°16'1010.0
2016-Feb-09 11:34N 53°37' E 000°00'7 6.8
2016-Feb-09 10:31N 53°38' W 000°11'0 0.0
2016-Feb-09 09:31N 53°38' W 000°11'0 0.0
2016-Feb-09 08:31N 53°38' W 000°11'0 0.0
2016-Feb-09 07:28N 53°38' W 000°11'0 0.0
2016-Feb-09 06:25N 53°38' W 000°11'0 0.0
2016-Feb-09 05:31N 53°38' W 000°11'0 0.0
2016-Feb-09 04:31N 53°38' W 000°11'0 0.0
2016-Feb-09 03:31N 53°38' W 000°11'0 0.0
2016-Feb-09 02:31N 53°38' W 000°11'0 0.0
2016-Feb-09 01:28N 53°38' W 000°11'0 0.0
2016-Feb-09 00:31N 53°38' W 000°11'0 0.0
2016-Feb-08 23:31N 53°38' W 000°11'0 0.0
2016-Feb-08 22:31N 53°38' W 000°11'0 0.0
2016-Feb-08 21:31N 53°38' W 000°11'0 0.0
2016-Feb-08 20:31N 53°38' W 000°11'0 0.0
2016-Feb-08 19:31N 53°38' W 000°11'0 0.0
2016-Feb-08 18:33N 53°38' W 000°11'0 0.0
2016-Feb-08 17:31N 53°38' W 000°11'0 0.0
2016-Feb-08 16:31N 53°38' W 000°11'0 0.0
2016-Feb-08 15:22N 53°38' W 000°11'0 0.0
2016-Feb-08 14:31N 53°38' W 000°11'0 0.2
2016-Feb-08 13:33N 53°38' W 000°11'7 6.8
2016-Feb-08 12:33N 53°36' W 000°01'9 9.0
2016-Feb-08 11:33N 53°33' E 000°14'8 7.7
2016-Feb-08 10:33N 53°39' E 000°22'4 4.3
2016-Feb-08 09:33N 53°42' E 000°28'1 1.0
2016-Feb-08 08:33N 53°41' E 000°29'1 1.3
2016-Feb-08 07:33N 53°41' E 000°26'2 2.2
2016-Feb-08 06:32N 53°42' E 000°23'1 1.4
2016-Feb-08 05:33N 53°41' E 000°25'3 2.9
2016-Feb-08 04:33N 53°39' E 000°28'3 3.1
2016-Feb-08 03:33N 53°41' E 000°24'5 5.3
2016-Feb-08 02:33N 53°46' E 000°21'7 6.6
2016-Feb-08 01:33N 53°53' E 000°20'6 5.7
2016-Feb-08 00:33N 53°58' E 000°20'5 5.0
2016-Feb-07 23:33N 54°03' E 000°20'3 3.4
2016-Feb-07 22:33N 54°07' E 000°20'3 3.2
2016-Feb-07 21:33N 54°10' E 000°20'4 4.0
2016-Feb-07 20:33N 54°14' E 000°20'8 7.6
2016-Feb-07 19:33N 54°21' E 000°14'1010.5
2016-Feb-07 18:33N 54°28' E 000°02'1211.9
2016-Feb-07 17:33N 54°37' W 000°13'1312.7
2016-Feb-07 16:33N 54°44' W 000°30'1312.5
2016-Feb-07 15:31N 54°45' W 000°53'1212.9
2016-Feb-07 14:33N 54°37' W 001°09'1 0.1
2016-Feb-06 16:07N 54°36' W 001°11'3 5.0
2016-Feb-06 15:33N 54°39' W 001°09'1110.8
2016-Feb-06 14:33N 54°38' W 000°50'1312.6
2016-Feb-06 13:34N 54°34' W 000°30'1312.5
2016-Feb-06 12:33N 54°25' W 000°15'1312.9
2016-Feb-06 11:33N 54°14' W 000°02'1413.7
2016-Feb-06 10:33N 54°04' E 000°14'1414.2
2016-Feb-06 09:33N 53°55' E 000°32'3514.2
2016-Feb-06 07:05N 53°26' E 001°05'912.6
2016-Feb-06 06:21N 53°18' E 001°13'911.7
2016-Feb-06 05:33N 53°11' E 001°23'1211.9
2016-Feb-06 04:33N 53°03' E 001°37'1212.0
2016-Feb-06 03:33N 52°57' E 001°55'8011.4
2016-Feb-05 20:33N 52°07' E 003°37'1212.3
2016-Feb-05 19:34N 52°03' E 003°56'1212.3
2016-Feb-05 18:34N 51°56' E 004°13'4 4.2
2016-Feb-05 17:30N 51°53' E 004°18'0 0.0
2016-Feb-05 16:33N 51°53' E 004°18'0 0.0
2016-Feb-05 15:30N 51°53' E 004°18'0 0.0
2016-Feb-05 14:33N 51°53' E 004°18'0 0.0
2016-Feb-05 13:33N 51°53' E 004°18'0 0.0
2016-Feb-05 12:18N 51°53' E 004°18'0 0.0
2016-Feb-05 11:32N 51°53' E 004°18'0 0.0
2016-Feb-05 10:33N 51°53' E 004°18'0 0.0
2016-Feb-05 09:33N 51°53' E 004°18'0 0.0
2016-Feb-05 08:33N 51°53' E 004°18'0 0.0
2016-Feb-05 07:32N 51°53' E 004°18'0 0.0
2016-Feb-05 06:24N 51°53' E 004°18'0 0.0
2016-Feb-05 05:32N 51°53' E 004°18'0 0.0
2016-Feb-05 04:29N 51°53' E 004°18'0 0.0
2016-Feb-05 03:29N 51°53' E 004°18'0 0.0
2016-Feb-05 02:23N 51°53' E 004°18'0 0.0
2016-Feb-05 01:33N 51°53' E 004°18'0 0.0
2016-Feb-05 00:32N 51°53' E 004°18'0 0.0
2016-Feb-04 23:30N 51°53' E 004°18'0 0.0
2016-Feb-04 22:32N 51°53' E 004°18'0 0.0
2016-Feb-04 21:33N 51°53' E 004°18'0 0.0
2016-Feb-04 20:32N 51°53' E 004°18'0 0.0
2016-Feb-04 19:29N 51°53' E 004°18'0 0.0
2016-Feb-04 18:29N 51°53' E 004°18'0 0.0
2016-Feb-04 17:29N 51°53' E 004°18'0 0.0
2016-Feb-04 16:32N 51°53' E 004°18'0 0.0
2016-Feb-04 15:24N 51°53' E 004°18'0 0.0
2016-Feb-04 14:30N 51°53' E 004°18'0 0.0
2016-Feb-04 13:29N 51°53' E 004°18'0 0.0
2016-Feb-04 12:30N 51°53' E 004°18'0 0.0
2016-Feb-04 11:29N 51°53' E 004°18'0 0.0
2016-Feb-04 10:32N 51°53' E 004°18'0 0.1
2016-Feb-04 09:33N 51°53' E 004°18'6 6.3
2016-Feb-04 08:33N 51°57' E 004°11'1212.0
2016-Feb-04 07:33N 52°01' E 003°52'4 4.1
2016-Feb-04 06:31N 51°57' E 003°49'0 0.0
2016-Feb-04 05:31N 51°57' E 003°49'0 0.0
2016-Feb-04 04:31N 51°57' E 003°49'0 0.0
2016-Feb-04 03:31N 51°57' E 003°49'0 0.0
2016-Feb-04 02:31N 51°57' E 003°49'0 0.0
2016-Feb-04 01:31N 51°57' E 003°49'0 0.0
2016-Feb-04 00:31N 51°57' E 003°49'0 0.0
2016-Feb-03 23:31N 51°57' E 003°49'0 0.0
2016-Feb-03 22:31N 51°57' E 003°49'0 0.0
2016-Feb-03 21:31N 51°57' E 003°49'0 0.0
2016-Feb-03 20:31N 51°57' E 003°49'0 0.0
2016-Feb-03 19:31N 51°57' E 003°49'0 0.1
2016-Feb-03 18:33N 51°57' E 003°49'7 7.1
2016-Feb-03 17:32N 51°57' E 003°37'  
Track history (hours):
 
Tides and Currents Weather Stations Pressure Air Temp Water Temp Dewpoint Dewpoint Depression Visibility Wind Speed Wind Dir Waves Ship Positions

Capewater

Last reported at 2016-Feb-13 17:10 UTC. Time now 2016-Feb-14 01:49 UTC.
Position N 54°26' E 005°25'.

Length 100 m; draft 6.5 m.

Type: Tanker. MMSI: 246346000.

Date/timePositionNaut miles runAvg speedWind from/ knotsBaromVisibWave heightAir tempDewpointWater temp
2016-Feb-13 17:10N 54°26' E 005°25'711.1
2016-Feb-13 16:33N 54°20' E 005°20'1111.0
2016-Feb-13 15:33N 54°10' E 005°11'1111.0
2016-Feb-13 14:33N 53°59' E 005°05'1111.0
2016-Feb-13 13:33N 53°49' E 004°58'4011.9
2016-Feb-13 10:14N 53°13' E 004°33'913.0
2016-Feb-13 09:33N 53°05' E 004°26'1313.1
2016-Feb-13 08:33N 52°53' E 004°16'1313.4
2016-Feb-13 07:33N 52°42' E 004°04'1413.8
2016-Feb-13 06:33N 52°30' E 003°55'1414.4
2016-Feb-13 05:34N 52°15' E 003°53'1313.3
2016-Feb-13 04:34N 52°02' E 003°55'1312.8
2016-Feb-13 03:33N 51°56' E 004°13'3 3.2
2016-Feb-13 02:31N 51°53' E 004°17'0 0.0
2016-Feb-13 01:31N 51°53' E 004°17'0 0.0
2016-Feb-13 00:31N 51°53' E 004°17'0 0.0
2016-Feb-12 23:31N 51°53' E 004°17'0 0.0
2016-Feb-12 22:25N 51°53' E 004°17'0 0.0
2016-Feb-12 21:31N 51°53' E 004°17'0 0.0
2016-Feb-12 20:31N 51°53' E 004°17'0 0.0
2016-Feb-12 19:31N 51°53' E 004°17'0 0.0
2016-Feb-12 18:28N 51°53' E 004°17'0 0.0
2016-Feb-12 17:31N 51°53' E 004°17'0 0.0
2016-Feb-12 16:31N 51°53' E 004°17'0 0.0
2016-Feb-12 15:31N 51°53' E 004°17'0 0.0
2016-Feb-12 14:31N 51°53' E 004°17'0 0.0
2016-Feb-12 13:31N 51°53' E 004°17'0 0.0
2016-Feb-12 12:28N 51°53' E 004°17'0 0.0
2016-Feb-12 11:28N 51°53' E 004°17'0 0.0
2016-Feb-12 10:31N 51°53' E 004°17'0 0.0
2016-Feb-12 09:31N 51°53' E 004°17'0 0.0
2016-Feb-12 08:31N 51°53' E 004°17'0 0.0
2016-Feb-12 07:25N 51°53' E 004°17'0 0.0
2016-Feb-12 06:25N 51°53' E 004°17'0 0.0
2016-Feb-12 05:16N 51°53' E 004°17'0 0.0
2016-Feb-12 04:25N 51°53' E 004°17'0 0.0
2016-Feb-12 03:31N 51°53' E 004°17'0 0.0
2016-Feb-12 02:31N 51°53' E 004°17'0 0.0
2016-Feb-12 01:31N 51°53' E 004°17'0 0.0
2016-Feb-12 00:31N 51°53' E 004°17'0 0.0
2016-Feb-11 23:31N 51°53' E 004°17'0 0.0
2016-Feb-11 22:31N 51°53' E 004°17'0 0.0
2016-Feb-11 21:34N 51°53' E 004°17'5 5.1
2016-Feb-11 20:33N 51°57' E 004°11'1111.4
2016-Feb-11 19:33N 52°01' E 003°54'8 8.2
2016-Feb-11 18:34N 52°03' E 003°41'2510.5
2016-Feb-11 16:10N 52°17' E 003°07'813.1
2016-Feb-11 15:33N 52°23' E 002°58'1313.3
2016-Feb-11 14:33N 52°31' E 002°40'2913.5
2016-Feb-11 12:23N 52°52' E 002°07'1214.2
2016-Feb-11 11:33N 52°58' E 001°50'1515.3
2016-Feb-11 10:34N 53°06' E 001°29'1915.1
2016-Feb-11 09:18N 53°21' E 001°09'3215.2
2016-Feb-11 07:12N 53°48' E 000°41'1015.4
2016-Feb-11 06:33N 53°56' E 000°32'1515.3
2016-Feb-11 05:33N 54°10' E 000°19'1515.1
2016-Feb-11 04:34N 54°23' E 000°05'1514.8
2016-Feb-11 03:33N 54°34' W 000°11'1414.3
2016-Feb-11 02:34N 54°43' W 000°30'1211.9
2016-Feb-11 01:32N 54°41' W 000°50'1211.8
2016-Feb-11 00:33N 54°38' W 001°09'2 0.1
2016-Feb-10 07:31N 54°36' W 001°11'5 4.9
2016-Feb-10 06:33N 54°40' W 001°07'4 4.3
2016-Feb-10 05:33N 54°42' W 001°00'0 0.0
2016-Feb-10 04:30N 54°42' W 001°00'0 0.0
2016-Feb-10 03:33N 54°42' W 001°00'0 0.0
2016-Feb-10 02:33N 54°42' W 001°00'0 0.0
2016-Feb-10 01:30N 54°42' W 001°00'0 0.0
2016-Feb-10 00:33N 54°43' W 001°00'0 0.1
2016-Feb-09 23:33N 54°43' W 001°01'0 0.0
2016-Feb-09 22:33N 54°43' W 001°01'0 0.0
2016-Feb-09 21:30N 54°43' W 001°01'0 0.1
2016-Feb-09 20:33N 54°43' W 001°00'1010.2
2016-Feb-09 19:32N 54°38' W 000°45'1111.5
2016-Feb-09 18:33N 54°33' W 000°27'1211.7
2016-Feb-09 17:34N 54°24' W 000°15'1111.1
2016-Feb-09 16:34N 54°15' W 000°04'1010.4
2016-Feb-09 15:33N 54°06' E 000°05'1111.3
2016-Feb-09 14:33N 53°55' E 000°13'1211.7
2016-Feb-09 13:33N 53°44' E 000°20'1111.1
2016-Feb-09 12:33N 53°33' E 000°16'1010.0
2016-Feb-09 11:34N 53°37' E 000°00'7 6.8
2016-Feb-09 10:31N 53°38' W 000°11'0 0.0
2016-Feb-09 09:31N 53°38' W 000°11'0 0.0
2016-Feb-09 08:31N 53°38' W 000°11'0 0.0
2016-Feb-09 07:28N 53°38' W 000°11'0 0.0
2016-Feb-09 06:25N 53°38' W 000°11'0 0.0
2016-Feb-09 05:31N 53°38' W 000°11'0 0.0
2016-Feb-09 04:31N 53°38' W 000°11'0 0.0
2016-Feb-09 03:31N 53°38' W 000°11'0 0.0
2016-Feb-09 02:31N 53°38' W 000°11'0 0.0
2016-Feb-09 01:28N 53°38' W 000°11'0 0.0
2016-Feb-09 00:31N 53°38' W 000°11'0 0.0
2016-Feb-08 23:31N 53°38' W 000°11'0 0.0
2016-Feb-08 22:31N 53°38' W 000°11'0 0.0
2016-Feb-08 21:31N 53°38' W 000°11'0 0.0
2016-Feb-08 20:31N 53°38' W 000°11'0 0.0
2016-Feb-08 19:31N 53°38' W 000°11'0 0.0
2016-Feb-08 18:33N 53°38' W 000°11'0 0.0
2016-Feb-08 17:31N 53°38' W 000°11'0 0.0
2016-Feb-08 16:31N 53°38' W 000°11'0 0.0
2016-Feb-08 15:22N 53°38' W 000°11'0 0.0
2016-Feb-08 14:31N 53°38' W 000°11'0 0.2
2016-Feb-08 13:33N 53°38' W 000°11'7 6.8
2016-Feb-08 12:33N 53°36' W 000°01'9 9.0
2016-Feb-08 11:33N 53°33' E 000°14'8 7.7
2016-Feb-08 10:33N 53°39' E 000°22'4 4.3
2016-Feb-08 09:33N 53°42' E 000°28'1 1.0
2016-Feb-08 08:33N 53°41' E 000°29'1 1.3
2016-Feb-08 07:33N 53°41' E 000°26'2 2.2
2016-Feb-08 06:32N 53°42' E 000°23'1 1.4
2016-Feb-08 05:33N 53°41' E 000°25'3 2.9
2016-Feb-08 04:33N 53°39' E 000°28'3 3.1
2016-Feb-08 03:33N 53°41' E 000°24'5 5.3
2016-Feb-08 02:33N 53°46' E 000°21'7 6.6
2016-Feb-08 01:33N 53°53' E 000°20'6 5.7
2016-Feb-08 00:33N 53°58' E 000°20'5 5.0
2016-Feb-07 23:33N 54°03' E 000°20'3 3.4
2016-Feb-07 22:33N 54°07' E 000°20'3 3.2
2016-Feb-07 21:33N 54°10' E 000°20'4 4.0
2016-Feb-07 20:33N 54°14' E 000°20'8 7.6
2016-Feb-07 19:33N 54°21' E 000°14'1010.5
2016-Feb-07 18:33N 54°28' E 000°02'1211.9
2016-Feb-07 17:33N 54°37' W 000°13'1312.7
2016-Feb-07 16:33N 54°44' W 000°30'1312.5
2016-Feb-07 15:31N 54°45' W 000°53'1212.9
2016-Feb-07 14:33N 54°37' W 001°09'1 0.1
2016-Feb-06 16:07N 54°36' W 001°11'3 5.0
2016-Feb-06 15:33N 54°39' W 001°09'1110.8
2016-Feb-06 14:33N 54°38' W 000°50'1312.6
2016-Feb-06 13:34N 54°34' W 000°30'1312.5
2016-Feb-06 12:33N 54°25' W 000°15'1312.9
2016-Feb-06 11:33N 54°14' W 000°02'1413.7
2016-Feb-06 10:33N 54°04' E 000°14'1414.2
2016-Feb-06 09:33N 53°55' E 000°32'3514.2
2016-Feb-06 07:05N 53°26' E 001°05'912.6
2016-Feb-06 06:21N 53°18' E 001°13'911.7
2016-Feb-06 05:33N 53°11' E 001°23'1211.9
2016-Feb-06 04:33N 53°03' E 001°37'1212.0
2016-Feb-06 03:33N 52°57' E 001°55'8011.4
2016-Feb-05 20:33N 52°07' E 003°37'1212.3
2016-Feb-05 19:34N 52°03' E 003°56'1212.3
2016-Feb-05 18:34N 51°56' E 004°13'4 4.2
2016-Feb-05 17:30N 51°53' E 004°18'0 0.0
2016-Feb-05 16:33N 51°53' E 004°18'0 0.0
2016-Feb-05 15:30N 51°53' E 004°18'0 0.0
2016-Feb-05 14:33N 51°53' E 004°18'0 0.0
2016-Feb-05 13:33N 51°53' E 004°18'0 0.0
2016-Feb-05 12:18N 51°53' E 004°18'0 0.0
2016-Feb-05 11:32N 51°53' E 004°18'0 0.0
2016-Feb-05 10:33N 51°53' E 004°18'0 0.0
2016-Feb-05 09:33N 51°53' E 004°18'0 0.0
2016-Feb-05 08:33N 51°53' E 004°18'0 0.0
2016-Feb-05 07:32N 51°53' E 004°18'0 0.0
2016-Feb-05 06:24N 51°53' E 004°18'0 0.0
2016-Feb-05 05:32N 51°53' E 004°18'0 0.0
2016-Feb-05 04:29N 51°53' E 004°18'0 0.0
2016-Feb-05 03:29N 51°53' E 004°18'0 0.0
2016-Feb-05 02:23N 51°53' E 004°18'0 0.0
2016-Feb-05 01:33N 51°53' E 004°18'0 0.0
2016-Feb-05 00:32N 51°53' E 004°18'0 0.0
2016-Feb-04 23:30N 51°53' E 004°18'0 0.0
2016-Feb-04 22:32N 51°53' E 004°18'0 0.0
2016-Feb-04 21:33N 51°53' E 004°18'0 0.0
2016-Feb-04 20:32N 51°53' E 004°18'0 0.0
2016-Feb-04 19:29N 51°53' E 004°18'0 0.0
2016-Feb-04 18:29N 51°53' E 004°18'0 0.0
2016-Feb-04 17:29N 51°53' E 004°18'0 0.0
2016-Feb-04 16:32N 51°53' E 004°18'0 0.0
2016-Feb-04 15:24N 51°53' E 004°18'0 0.0
2016-Feb-04 14:30N 51°53' E 004°18'0 0.0
2016-Feb-04 13:29N 51°53' E 004°18'0 0.0
2016-Feb-04 12:30N 51°53' E 004°18'0 0.0
2016-Feb-04 11:29N 51°53' E 004°18'0 0.0
2016-Feb-04 10:32N 51°53' E 004°18'0 0.1
2016-Feb-04 09:33N 51°53' E 004°18'6 6.3
2016-Feb-04 08:33N 51°57' E 004°11'1212.0
2016-Feb-04 07:33N 52°01' E 003°52'4 4.1
2016-Feb-04 06:31N 51°57' E 003°49'0 0.0
2016-Feb-04 05:31N 51°57' E 003°49'0 0.0
2016-Feb-04 04:31N 51°57' E 003°49'0 0.0
2016-Feb-04 03:31N 51°57' E 003°49'0 0.0
2016-Feb-04 02:31N 51°57' E 003°49'0 0.0
2016-Feb-04 01:31N 51°57' E 003°49'0 0.0
2016-Feb-04 00:31N 51°57' E 003°49'0 0.0
2016-Feb-03 23:31N 51°57' E 003°49'0 0.0
2016-Feb-03 22:31N 51°57' E 003°49'0 0.0
2016-Feb-03 21:31N 51°57' E 003°49'0 0.0
2016-Feb-03 20:31N 51°57' E 003°49'0 0.0
2016-Feb-03 19:31N 51°57' E 003°49'0 0.1
2016-Feb-03 18:33N 51°57' E 003°49'7 7.1
2016-Feb-03 17:32N 51°57' E 003°37'  

Dump ship's entire track history